sensor_id;sensor_type;location;lat;lon;timestamp;pressure;altitude;pressure_sealevel;temperature;humidity
18850;BME280;4989;48.772;9.154;2023-12-20T00:00:03;98013.94;;;6.66;100.00
18850;BME280;4989;48.772;9.154;2023-12-20T00:05:08;97998.50;;;6.67;100.00
18850;BME280;4989;48.772;9.154;2023-12-20T00:10:10;97996.16;;;6.69;100.00
18850;BME280;4989;48.772;9.154;2023-12-20T00:15:15;97989.97;;;6.72;100.00
18850;BME280;4989;48.772;9.154;2023-12-20T00:20:18;97984.91;;;6.77;100.00
18850;BME280;4989;48.772;9.154;2023-12-20T00:25:20;97979.16;;;6.75;100.00
18850;BME280;4989;48.772;9.154;2023-12-20T00:30:23;97971.47;;;6.70;100.00
18850;BME280;4989;48.772;9.154;2023-12-20T00:35:25;97966.84;;;6.67;100.00
18850;BME280;4989;48.772;9.154;2023-12-20T00:40:28;97967.25;;;6.62;100.00
18850;BME280;4989;48.772;9.154;2023-12-20T00:45:31;97976.16;;;6.59;100.00
18850;BME280;4989;48.772;9.154;2023-12-20T00:50:33;97964.22;;;6.53;100.00
18850;BME280;4989;48.772;9.154;2023-12-20T00:55:36;97959.25;;;6.48;100.00
18850;BME280;4989;48.772;9.154;2023-12-20T01:00:39;97956.97;;;6.42;100.00
18850;BME280;4989;48.772;9.154;2023-12-20T01:05:45;97962.38;;;6.39;100.00
18850;BME280;4989;48.772;9.154;2023-12-20T01:10:48;97979.34;;;6.39;100.00
18850;BME280;4989;48.772;9.154;2023-12-20T01:15:50;97973.22;;;6.28;100.00
18850;BME280;4989;48.772;9.154;2023-12-20T01:20:53;97983.25;;;6.31;100.00
18850;BME280;4989;48.772;9.154;2023-12-20T01:25:56;97978.59;;;6.35;100.00
18850;BME280;4989;48.772;9.154;2023-12-20T01:30:58;97985.94;;;6.31;100.00
18850;BME280;4989;48.772;9.154;2023-12-20T01:36:01;97980.16;;;6.33;100.00
18850;BME280;4989;48.772;9.154;2023-12-20T01:41:04;97986.69;;;6.35;100.00
18850;BME280;4989;48.772;9.154;2023-12-20T01:46:07;97990.91;;;6.40;100.00
18850;BME280;4989;48.772;9.154;2023-12-20T01:51:11;97996.28;;;6.51;100.00
18850;BME280;4989;48.772;9.154;2023-12-20T01:56:14;97983.94;;;6.46;100.00
18850;BME280;4989;48.772;9.154;2023-12-20T02:01:17;97981.66;;;6.37;100.00
18850;BME280;4989;48.772;9.154;2023-12-20T02:06:22;97988.19;;;6.43;100.00
18850;BME280;4989;48.772;9.154;2023-12-20T02:11:25;97985.81;;;6.60;100.00
18850;BME280;4989;48.772;9.154;2023-12-20T02:16:28;97980.31;;;6.74;100.00
18850;BME280;4989;48.772;9.154;2023-12-20T02:21:34;97985.53;;;7.03;100.00
18850;BME280;4989;48.772;9.154;2023-12-20T02:26:38;97991.25;;;7.12;100.00
18850;BME280;4989;48.772;9.154;2023-12-20T02:31:40;97986.53;;;7.23;100.00
18850;BME280;4989;48.772;9.154;2023-12-20T02:36:43;97982.16;;;6.88;100.00
18850;BME280;4989;48.772;9.154;2023-12-20T02:41:46;97991.06;;;6.85;100.00
18850;BME280;4989;48.772;9.154;2023-12-20T02:46:48;97996.03;;;6.90;100.00
18850;BME280;4989;48.772;9.154;2023-12-20T02:51:51;97982.19;;;6.84;100.00
18850;BME280;4989;48.772;9.154;2023-12-20T02:56:54;97995.34;;;6.72;100.00
18850;BME280;4989;48.772;9.154;2023-12-20T03:01:56;97998.50;;;6.67;100.00
18850;BME280;4989;48.772;9.154;2023-12-20T03:06:59;97996.97;;;6.62;100.00
18850;BME280;4989;48.772;9.154;2023-12-20T03:12:02;98001.66;;;6.54;100.00
18850;BME280;4989;48.772;9.154;2023-12-20T03:17:04;98013.22;;;6.51;100.00
18850;BME280;4989;48.772;9.154;2023-12-20T03:22:07;98014.78;;;6.49;100.00
18850;BME280;4989;48.772;9.154;2023-12-20T03:27:10;98008.66;;;6.37;100.00
18850;BME280;4989;48.772;9.154;2023-12-20T03:32:12;98010.97;;;6.39;100.00
18850;BME280;4989;48.772;9.154;2023-12-20T03:37:15;98002.81;;;6.50;100.00
18850;BME280;4989;48.772;9.154;2023-12-20T03:42:17;98009.78;;;6.43;100.00
18850;BME280;4989;48.772;9.154;2023-12-20T03:47:20;98015.47;;;6.67;100.00
18850;BME280;4989;48.772;9.154;2023-12-20T03:52:23;98013.94;;;6.59;100.00
18850;BME280;4989;48.772;9.154;2023-12-20T03:57:25;98030.06;;;6.77;100.00
18850;BME280;4989;48.772;9.154;2023-12-20T04:02:28;98022.38;;;6.68;100.00
18850;BME280;4989;48.772;9.154;2023-12-20T04:07:31;98027.78;;;6.75;100.00
18850;BME280;4989;48.772;9.154;2023-12-20T04:12:34;98028.66;;;6.51;100.00
18850;BME280;4989;48.772;9.154;2023-12-20T04:17:36;98024.06;;;6.40;100.00
18850;BME280;4989;48.772;9.154;2023-12-20T04:22:39;98034.88;;;6.37;100.00
18850;BME280;4989;48.772;9.154;2023-12-20T04:27:42;98047.66;;;6.22;100.00
18850;BME280;4989;48.772;9.154;2023-12-20T04:32:45;98045.75;;;6.19;100.00
18850;BME280;4989;48.772;9.154;2023-12-20T04:37:48;98042.28;;;6.08;100.00
18850;BME280;4989;48.772;9.154;2023-12-20T04:42:51;98044.25;;;6.00;100.00
18850;BME280;4989;48.772;9.154;2023-12-20T04:47:55;98059.66;;;6.07;100.00
18850;BME280;4989;48.772;9.154;2023-12-20T04:52:58;98066.22;;;6.06;100.00
18850;BME280;4989;48.772;9.154;2023-12-20T04:58:01;98050.03;;;5.99;100.00
18850;BME280;4989;48.772;9.154;2023-12-20T05:03:04;98075.81;;;6.21;100.00
18850;BME280;4989;48.772;9.154;2023-12-20T05:08:07;98073.81;;;6.39;100.00
18850;BME280;4989;48.772;9.154;2023-12-20T05:13:10;98083.38;;;6.58;100.00
18850;BME280;4989;48.772;9.154;2023-12-20T05:18:13;98079.53;;;6.59;100.00
18850;BME280;4989;48.772;9.154;2023-12-20T05:23:16;98093.47;;;6.51;100.00
18850;BME280;4989;48.772;9.154;2023-12-20T05:28:19;98080.31;;;6.56;100.00
18850;BME280;4989;48.772;9.154;2023-12-20T05:33:22;98096.44;;;6.74;100.00
18850;BME280;4989;48.772;9.154;2023-12-20T05:38:25;98103.78;;;6.74;100.00
18850;BME280;4989;48.772;9.154;2023-12-20T05:43:27;98109.59;;;6.72;100.00
18850;BME280;4989;48.772;9.154;2023-12-20T05:48:30;98114.97;;;6.72;100.00
18850;BME280;4989;48.772;9.154;2023-12-20T05:53:33;98124.19;;;6.85;100.00
18850;BME280;4989;48.772;9.154;2023-12-20T05:58:36;98134.09;;;7.10;100.00
18850;BME280;4989;48.772;9.154;2023-12-20T06:03:43;98139.91;;;7.08;100.00
18850;BME280;4989;48.772;9.154;2023-12-20T06:08:45;98161.78;;;7.28;100.00
18850;BME280;4989;48.772;9.154;2023-12-20T06:13:48;98150.28;;;7.17;100.00
18850;BME280;4989;48.772;9.154;2023-12-20T06:18:51;98154.81;;;7.34;100.00
18850;BME280;4989;48.772;9.154;2023-12-20T06:23:54;98147.81;;;7.41;100.00
18850;BME280;4989;48.772;9.154;2023-12-20T06:28:57;98151.38;;;7.30;100.00
18850;BME280;4989;48.772;9.154;2023-12-20T06:34:00;98137.94;;;7.13;100.00
18850;BME280;4989;48.772;9.154;2023-12-20T06:39:03;98137.97;;;7.02;100.00
18850;BME280;4989;48.772;9.154;2023-12-20T06:44:07;98146.06;;;7.13;100.00
18850;BME280;4989;48.772;9.154;2023-12-20T06:49:10;98166.47;;;7.21;100.00
18850;BME280;4989;48.772;9.154;2023-12-20T06:54:13;98171.88;;;7.21;100.00
18850;BME280;4989;48.772;9.154;2023-12-20T06:59:15;98171.84;;;7.28;100.00
18850;BME280;4989;48.772;9.154;2023-12-20T07:04:18;98188.44;;;7.33;100.00
18850;BME280;4989;48.772;9.154;2023-12-20T07:09:24;98187.69;;;7.29;100.00
18850;BME280;4989;48.772;9.154;2023-12-20T07:14:27;98197.97;;;7.52;100.00
18850;BME280;4989;48.772;9.154;2023-12-20T07:19:30;98207.22;;;7.55;100.00
18850;BME280;4989;48.772;9.154;2023-12-20T07:24:33;98215.88;;;7.25;100.00
18850;BME280;4989;48.772;9.154;2023-12-20T07:29:36;98232.47;;;7.30;100.00
18850;BME280;4989;48.772;9.154;2023-12-20T07:34:39;98246.69;;;7.45;100.00
18850;BME280;4989;48.772;9.154;2023-12-20T07:39:42;98241.38;;;7.17;100.00
18850;BME280;4989;48.772;9.154;2023-12-20T07:44:45;98250.59;;;7.37;100.00
18850;BME280;4989;48.772;9.154;2023-12-20T07:49:49;98257.13;;;7.43;100.00
18850;BME280;4989;48.772;9.154;2023-12-20T07:54:57;98253.03;;;6.96;100.00
18850;BME280;4989;48.772;9.154;2023-12-20T08:00:00;98251.13;;;6.85;100.00
18850;BME280;4989;48.772;9.154;2023-12-20T08:05:05;98250.75;;;6.91;100.00
18850;BME280;4989;48.772;9.154;2023-12-20T08:10:08;98258.47;;;6.85;100.00
18850;BME280;4989;48.772;9.154;2023-12-20T08:15:11;98266.53;;;7.03;100.00
18850;BME280;4989;48.772;9.154;2023-12-20T08:20:14;98266.97;;;6.91;100.00
18850;BME280;4989;48.772;9.154;2023-12-20T08:25:27;98287.00;;;6.89;100.00
18850;BME280;4989;48.772;9.154;2023-12-20T08:30:31;98284.75;;;6.70;100.00
18850;BME280;4989;48.772;9.154;2023-12-20T08:35:34;98277.72;;;7.12;100.00
18850;BME280;4989;48.772;9.154;2023-12-20T08:40:38;98288.94;;;7.03;100.00
18850;BME280;4989;48.772;9.154;2023-12-20T08:45:40;98300.13;;;7.09;100.00
18850;BME280;4989;48.772;9.154;2023-12-20T08:50:44;98314.81;;;6.83;100.00
18850;BME280;4989;48.772;9.154;2023-12-20T08:55:47;98319.44;;;6.72;100.00
18850;BME280;4989;48.772;9.154;2023-12-20T09:00:50;98315.22;;;6.56;100.00
18850;BME280;4989;48.772;9.154;2023-12-20T09:05:52;98300.13;;;6.98;100.00
18850;BME280;4989;48.772;9.154;2023-12-20T09:10:55;98298.25;;;6.63;100.00
18850;BME280;4989;48.772;9.154;2023-12-20T09:15:58;98313.66;;;6.59;100.00
18850;BME280;4989;48.772;9.154;2023-12-20T09:21:01;98304.81;;;6.73;100.00
18850;BME280;4989;48.772;9.154;2023-12-20T09:26:04;98300.91;;;6.92;100.00
18850;BME280;4989;48.772;9.154;2023-12-20T09:31:07;98313.66;;;6.77;100.00
18850;BME280;4989;48.772;9.154;2023-12-20T09:36:10;98315.19;;;6.88;100.00
18850;BME280;4989;48.772;9.154;2023-12-20T09:41:13;98316.75;;;6.86;100.00
18850;BME280;4989;48.772;9.154;2023-12-20T09:46:17;98324.84;;;6.97;100.00
18850;BME280;4989;48.772;9.154;2023-12-20T09:51:24;98328.69;;;6.88;100.00
18850;BME280;4989;48.772;9.154;2023-12-20T09:56:27;98330.59;;;6.99;100.00
18850;BME280;4989;48.772;9.154;2023-12-20T10:01:32;98340.63;;;7.13;100.00
18850;BME280;4989;48.772;9.154;2023-12-20T10:06:37;98334.00;;;7.35;100.00
18850;BME280;4989;48.772;9.154;2023-12-20T10:11:40;98334.72;;;7.50;100.00
18850;BME280;4989;48.772;9.154;2023-12-20T10:16:43;98324.91;;;7.92;100.00
18850;BME280;4989;48.772;9.154;2023-12-20T10:21:45;98320.38;;;7.67;100.00
18850;BME280;4989;48.772;9.154;2023-12-20T10:27:10;98309.25;;;7.51;100.00
18850;BME280;4989;48.772;9.154;2023-12-20T10:32:23;98302.22;;;7.68;100.00
18850;BME280;4989;48.772;9.154;2023-12-20T10:37:29;98295.25;;;7.70;100.00
18850;BME280;4989;48.772;9.154;2023-12-20T10:42:32;98290.50;;;7.89;100.00
18850;BME280;4989;48.772;9.154;2023-12-20T10:47:39;98294.19;;;8.16;100.00
18850;BME280;4989;48.772;9.154;2023-12-20T10:52:43;98296.72;;;7.86;100.00
18850;BME280;4989;48.772;9.154;2023-12-20T10:57:47;98292.28;;;8.13;100.00
18850;BME280;4989;48.772;9.154;2023-12-20T11:02:53;98293.53;;;8.05;100.00
18850;BME280;4989;48.772;9.154;2023-12-20T11:08:27;98284.59;;;8.04;100.00
18850;BME280;4989;48.772;9.154;2023-12-20T11:13:33;98288.97;;;7.88;100.00
18850;BME280;4989;48.772;9.154;2023-12-20T11:18:37;98278.34;;;7.52;100.00
18850;BME280;4989;48.772;9.154;2023-12-20T11:23:39;98279.94;;;7.39;100.00
18850;BME280;4989;48.772;9.154;2023-12-20T11:28:44;98276.06;;;7.40;100.00
18850;BME280;4989;48.772;9.154;2023-12-20T11:33:47;98274.53;;;7.42;100.00
18850;BME280;4989;48.772;9.154;2023-12-20T11:38:57;98276.81;;;7.44;100.00
18850;BME280;4989;48.772;9.154;2023-12-20T11:44:00;98274.19;;;7.26;100.00
18850;BME280;4989;48.772;9.154;2023-12-20T11:49:03;98283.84;;;7.27;100.00
18850;BME280;4989;48.772;9.154;2023-12-20T11:54:06;98277.59;;;7.41;100.00
18850;BME280;4989;48.772;9.154;2023-12-20T11:59:09;98264.00;;;7.58;100.00
18850;BME280;4989;48.772;9.154;2023-12-20T12:04:24;98262.47;;;7.57;100.00
18850;BME280;4989;48.772;9.154;2023-12-20T12:09:27;98259.44;;;7.45;100.00
18850;BME280;4989;48.772;9.154;2023-12-20T12:14:30;98248.34;;;7.21;100.00
18850;BME280;4989;48.772;9.154;2023-12-20T12:19:33;98245.94;;;7.45;100.00
18850;BME280;4989;48.772;9.154;2023-12-20T12:24:38;98231.97;;;7.57;100.00
18850;BME280;4989;48.772;9.154;2023-12-20T12:29:43;98235.03;;;7.59;100.00
18850;BME280;4989;48.772;9.154;2023-12-20T12:35:04;98224.66;;;7.50;100.00
18850;BME280;4989;48.772;9.154;2023-12-20T12:40:13;98222.63;;;7.65;100.00
18850;BME280;4989;48.772;9.154;2023-12-20T12:45:16;98224.50;;;7.75;100.00
18850;BME280;4989;48.772;9.154;2023-12-20T12:50:19;98215.28;;;7.69;100.00
18850;BME280;4989;48.772;9.154;2023-12-20T12:55:22;98227.69;;;7.56;100.00
18850;BME280;4989;48.772;9.154;2023-12-20T13:00:24;98228.75;;;7.76;100.00
18850;BME280;4989;48.772;9.154;2023-12-20T13:05:28;98234.19;;;7.69;100.00
18850;BME280;4989;48.772;9.154;2023-12-20T13:10:31;98227.38;;;7.50;100.00
18850;BME280;4989;48.772;9.154;2023-12-20T13:15:34;98231.91;;;7.64;100.00
18850;BME280;4989;48.772;9.154;2023-12-20T13:20:40;98218.44;;;8.13;100.00
18850;BME280;4989;48.772;9.154;2023-12-20T13:25:42;98230.78;;;8.17;100.00
18850;BME280;4989;48.772;9.154;2023-12-20T13:30:45;98219.97;;;8.14;100.00
18850;BME280;4989;48.772;9.154;2023-12-20T13:35:48;98214.09;;;8.26;100.00
18850;BME280;4989;48.772;9.154;2023-12-20T13:40:51;98230.50;;;8.01;100.00
18850;BME280;4989;48.772;9.154;2023-12-20T13:45:53;98225.66;;;7.74;100.00
18850;BME280;4989;48.772;9.154;2023-12-20T13:50:57;98227.69;;;7.56;100.00
18850;BME280;4989;48.772;9.154;2023-12-20T13:56:00;98232.66;;;7.68;100.00
18850;BME280;4989;48.772;9.154;2023-12-20T14:01:03;98252.78;;;7.64;100.00
18850;BME280;4989;48.772;9.154;2023-12-20T14:06:06;98224.25;;;7.52;100.00
18850;BME280;4989;48.772;9.154;2023-12-20T14:11:09;98222.00;;;7.40;100.00
18850;BME280;4989;48.772;9.154;2023-12-20T14:16:13;98202.78;;;7.16;100.00
18850;BME280;4989;48.772;9.154;2023-12-20T14:21:17;98200.44;;;7.25;100.00
18850;BME280;4989;48.772;9.154;2023-12-20T14:26:20;98188.88;;;7.21;100.00
18850;BME280;4989;48.772;9.154;2023-12-20T14:31:22;98196.63;;;7.16;100.00
18850;BME280;4989;48.772;9.154;2023-12-20T14:36:27;98194.31;;;7.14;100.00
18850;BME280;4989;48.772;9.154;2023-12-20T14:41:30;98199.72;;;7.10;100.00
18850;BME280;4989;48.772;9.154;2023-12-20T14:46:34;98191.34;;;6.80;100.00
18850;BME280;4989;48.772;9.154;2023-12-20T14:51:36;98207.88;;;6.93;100.00
18850;BME280;4989;48.772;9.154;2023-12-20T14:56:40;98196.75;;;6.76;100.00
18850;BME280;4989;48.772;9.154;2023-12-20T15:01:44;98198.69;;;6.65;100.00
18850;BME280;4989;48.772;9.154;2023-12-20T15:06:47;98202.91;;;6.77;100.00
18850;BME280;4989;48.772;9.154;2023-12-20T15:11:50;98211.41;;;6.82;100.00
18850;BME280;4989;48.772;9.154;2023-12-20T15:16:52;98210.28;;;6.62;100.00
18850;BME280;4989;48.772;9.154;2023-12-20T15:21:55;98203.75;;;6.56;100.00
18850;BME280;4989;48.772;9.154;2023-12-20T15:26:58;98207.59;;;6.55;100.00
18850;BME280;4989;48.772;9.154;2023-12-20T15:32:00;98199.16;;;6.38;100.00
18850;BME280;4989;48.772;9.154;2023-12-20T15:37:03;98212.25;;;6.36;100.00
18850;BME280;4989;48.772;9.154;2023-12-20T15:42:07;98201.47;;;6.36;100.00
18850;BME280;4989;48.772;9.154;2023-12-20T15:47:09;98206.09;;;6.18;100.00
18850;BME280;4989;48.772;9.154;2023-12-20T15:52:12;98209.19;;;6.13;100.00
18850;BME280;4989;48.772;9.154;2023-12-20T15:57:15;98209.94;;;6.35;100.00
18850;BME280;4989;48.772;9.154;2023-12-20T16:02:24;98206.88;;;6.22;100.00
18850;BME280;4989;48.772;9.154;2023-12-20T16:07:26;98216.88;;;6.32;100.00
18850;BME280;4989;48.772;9.154;2023-12-20T16:12:29;98215.34;;;6.35;100.00
18850;BME280;4989;48.772;9.154;2023-12-20T16:17:33;98226.84;;;6.71;100.00
18850;BME280;4989;48.772;9.154;2023-12-20T16:22:37;98223.81;;;6.40;100.00
18850;BME280;4989;48.772;9.154;2023-12-20T16:27:39;98209.94;;;6.17;100.00
18850;BME280;4989;48.772;9.154;2023-12-20T16:32:44;98219.22;;;6.45;100.00
18850;BME280;4989;48.772;9.154;2023-12-20T16:37:47;98211.09;;;6.37;100.00
18850;BME280;4989;48.772;9.154;2023-12-20T16:42:50;98191.44;;;6.05;100.00
18850;BME280;4989;48.772;9.154;2023-12-20T16:47:55;98185.25;;;5.86;100.00
18850;BME280;4989;48.772;9.154;2023-12-20T16:52:58;98189.88;;;5.86;100.00
18850;BME280;4989;48.772;9.154;2023-12-20T16:58:01;98191.41;;;5.83;100.00
18850;BME280;4989;48.772;9.154;2023-12-20T17:03:08;98189.88;;;5.75;100.00
18850;BME280;4989;48.772;9.154;2023-12-20T17:08:11;98188.31;;;5.74;100.00
18850;BME280;4989;48.772;9.154;2023-12-20T17:13:13;98177.91;;;5.65;100.00
18850;BME280;4989;48.772;9.154;2023-12-20T17:18:16;98178.66;;;5.51;100.00
18850;BME280;4989;48.772;9.154;2023-12-20T17:23:19;98180.19;;;5.45;100.00
18850;BME280;4989;48.772;9.154;2023-12-20T17:28:22;98182.88;;;5.38;100.00
18850;BME280;4989;48.772;9.154;2023-12-20T17:33:25;98170.59;;;5.48;100.00
18850;BME280;4989;48.772;9.154;2023-12-20T17:38:28;98172.09;;;5.38;100.00
18850;BME280;4989;48.772;9.154;2023-12-20T17:43:31;98174.81;;;5.45;100.00
18850;BME280;4989;48.772;9.154;2023-12-20T17:48:34;98176.75;;;5.56;100.00
18850;BME280;4989;48.772;9.154;2023-12-20T17:53:37;98170.56;;;5.37;100.00
18850;BME280;4989;48.772;9.154;2023-12-20T17:58:39;98160.19;;;5.50;100.00
18850;BME280;4989;48.772;9.154;2023-12-20T18:03:42;98154.41;;;5.51;100.00
18850;BME280;4989;48.772;9.154;2023-12-20T18:08:45;98148.22;;;5.40;100.00
18850;BME280;4989;48.772;9.154;2023-12-20T18:13:47;98154.41;;;5.51;100.00
18850;BME280;4989;48.772;9.154;2023-12-20T18:18:51;98158.28;;;5.58;100.00
18850;BME280;4989;48.772;9.154;2023-12-20T18:23:54;98152.88;;;5.65;100.00
18850;BME280;4989;48.772;9.154;2023-12-20T18:29:09;98159.06;;;5.72;100.00
18850;BME280;4989;48.772;9.154;2023-12-20T18:34:12;98160.97;;;5.65;100.00
18850;BME280;4989;48.772;9.154;2023-12-20T18:39:15;98172.50;;;5.62;100.00
18850;BME280;4989;48.772;9.154;2023-12-20T18:44:18;98153.66;;;5.65;100.00
18850;BME280;4989;48.772;9.154;2023-12-20T18:49:21;98152.91;;;5.72;100.00
18850;BME280;4989;48.772;9.154;2023-12-20T18:54:23;98157.13;;;5.77;100.00
18850;BME280;4989;48.772;9.154;2023-12-20T18:59:27;98151.38;;;5.78;100.00
18850;BME280;4989;48.772;9.154;2023-12-20T19:04:33;98145.19;;;5.67;100.00
18850;BME280;4989;48.772;9.154;2023-12-20T19:09:39;98154.44;;;5.80;100.00
18850;BME280;4989;48.772;9.154;2023-12-20T19:14:42;98154.44;;;5.77;100.00
18850;BME280;4989;48.772;9.154;2023-12-20T19:19:47;98137.88;;;5.78;100.00
18850;BME280;4989;48.772;9.154;2023-12-20T19:24:50;98139.03;;;5.88;100.00
18850;BME280;4989;48.772;9.154;2023-12-20T19:29:53;98129.78;;;5.82;100.00
18850;BME280;4989;48.772;9.154;2023-12-20T19:35:00;98122.84;;;5.84;100.00
18850;BME280;4989;48.772;9.154;2023-12-20T19:40:03;98120.53;;;5.65;100.00
18850;BME280;4989;48.772;9.154;2023-12-20T19:45:07;98114.38;;;5.61;100.00
18850;BME280;4989;48.772;9.154;2023-12-20T19:50:12;98101.66;;;5.43;100.00
18850;BME280;4989;48.772;9.154;2023-12-20T19:55:16;98091.25;;;5.56;100.00
18850;BME280;4989;48.772;9.154;2023-12-20T20:00:19;98081.63;;;5.51;100.00
18850;BME280;4989;48.772;9.154;2023-12-20T20:05:22;98078.16;;;5.44;100.00
18850;BME280;4989;48.772;9.154;2023-12-20T20:10:28;98066.59;;;5.50;100.00
18850;BME280;4989;48.772;9.154;2023-12-20T20:15:30;98066.22;;;5.41;100.00
18850;BME280;4989;48.772;9.154;2023-12-20T20:20:33;98057.34;;;5.44;100.00
18850;BME280;4989;48.772;9.154;2023-12-20T20:25:36;98075.88;;;5.64;100.00
18850;BME280;4989;48.772;9.154;2023-12-20T20:30:39;98071.63;;;5.48;100.00
18850;BME280;4989;48.772;9.154;2023-12-20T20:35:42;98057.75;;;5.43;100.00
18850;BME280;4989;48.772;9.154;2023-12-20T20:40:44;98065.44;;;5.41;100.00
18850;BME280;4989;48.772;9.154;2023-12-20T20:45:47;98066.63;;;5.40;100.00
18850;BME280;4989;48.772;9.154;2023-12-20T20:50:52;98070.47;;;5.39;100.00
18850;BME280;4989;48.772;9.154;2023-12-20T20:55:57;98067.78;;;5.39;100.00
18850;BME280;4989;48.772;9.154;2023-12-20T21:01:04;98063.53;;;5.70;100.00
18850;BME280;4989;48.772;9.154;2023-12-20T21:06:11;98050.06;;;5.48;100.00
18850;BME280;4989;48.772;9.154;2023-12-20T21:11:14;98051.97;;;5.44;100.00
18850;BME280;4989;48.772;9.154;2023-12-20T21:16:20;98035.44;;;5.42;100.00
18850;BME280;4989;48.772;9.154;2023-12-20T21:21:23;98033.47;;;5.54;100.00
18850;BME280;4989;48.772;9.154;2023-12-20T21:26:26;98025.03;;;5.44;100.00
18850;BME280;4989;48.772;9.154;2023-12-20T21:31:29;98008.09;;;5.55;100.00
18850;BME280;4989;48.772;9.154;2023-12-20T21:36:32;98008.06;;;5.62;100.00
18850;BME280;4989;48.772;9.154;2023-12-20T21:41:34;98000.00;;;5.47;100.00
18850;BME280;4989;48.772;9.154;2023-12-20T21:46:37;97984.63;;;5.37;100.00
18850;BME280;4989;48.772;9.154;2023-12-20T21:51:43;97958.03;;;5.32;100.00
18850;BME280;4989;48.772;9.154;2023-12-20T21:56:45;97962.66;;;5.32;100.00
18850;BME280;4989;48.772;9.154;2023-12-20T22:01:48;97951.13;;;5.42;100.00
18850;BME280;4989;48.772;9.154;2023-12-20T22:06:51;97945.72;;;5.38;100.00
18850;BME280;4989;48.772;9.154;2023-12-20T22:11:53;97940.34;;;5.42;100.00
18850;BME280;4989;48.772;9.154;2023-12-20T22:16:56;97954.97;;;5.51;100.00
18850;BME280;4989;48.772;9.154;2023-12-20T22:22:00;97959.19;;;5.53;100.00
18850;BME280;4989;48.772;9.154;2023-12-20T22:27:03;97960.72;;;5.61;100.00
18850;BME280;4989;48.772;9.154;2023-12-20T22:32:06;97942.22;;;5.56;100.00
18850;BME280;4989;48.772;9.154;2023-12-20T22:37:10;97951.03;;;5.74;100.00
18850;BME280;4989;48.772;9.154;2023-12-20T22:42:13;97935.66;;;5.71;100.00
18850;BME280;4989;48.772;9.154;2023-12-20T22:47:16;97937.19;;;5.72;100.00
18850;BME280;4989;48.772;9.154;2023-12-20T23:28:56;97867.88;;;5.69;100.00
18850;BME280;4989;48.772;9.154;2023-12-20T23:33:59;97844.75;;;5.75;100.00
18850;BME280;4989;48.772;9.154;2023-12-20T23:39:02;97831.22;;;5.82;100.00
18850;BME280;4989;48.772;9.154;2023-12-20T23:44:05;97820.72;;;6.06;100.00
18850;BME280;4989;48.772;9.154;2023-12-20T23:49:08;97799.25;;;5.84;100.00
18850;BME280;4989;48.772;9.154;2023-12-20T23:54:11;97786.75;;;6.12;100.00
18850;BME280;4989;48.772;9.154;2023-12-20T23:59:13;97791.19;;;5.77;100.00
